Time;durP1;ratioP1;P1;durP2;ratioP2;P2;SDS_P1;SDS_P2;PMS_P1;PMS_P2;Temp;Humidity;BMP_temperature;BMP_pressure;BME280_temperature;BME280_humidity;BME280_pressure;Samples;Min_cycle;Max_cycle;Signal;HPM_P1;HPM_P2
2023/03/16 00:00:54;;;;;;;1.52;1.42;;;;;;;;;;5056098;28;20051;-87
2023/03/16 00:03:22;;;;;;;1.27;1.25;;;;;;;;;;5058179;28;20581;-88
2023/03/16 00:05:50;;;;;;;1.17;1.15;;;;;;;;;;5058004;28;20049;-87
2023/03/16 00:08:17;;;;;;;2.00;1.90;;;;;;;;;;5055588;28;20053;-87
2023/03/16 00:10:45;;;;;;;0.85;0.85;;;;;;;;;;5057886;28;20053;-87
2023/03/16 00:13:12;;;;;;;2.38;2.17;;;;;;;;;;5059081;28;20049;-87
2023/03/16 00:15:39;;;;;;;1.10;1.00;;;;;;;;;;5055394;28;20443;-87
2023/03/16 00:18:05;;;;;;;1.65;1.55;;;;;;;;;;5055538;28;20052;-87
2023/03/16 00:20:32;;;;;;;1.50;1.45;;;;;;;;;;5037676;28;20053;-88
2023/03/16 00:23:01;;;;;;;1.58;1.48;;;;;;;;;;5035199;28;20049;-87
2023/03/16 00:25:28;;;;;;;1.38;1.27;;;;;;;;;;5054392;28;20124;-88
2023/03/16 00:27:54;;;;;;;1.05;1.05;;;;;;;;;;5056364;28;20110;-87
2023/03/16 00:30:21;;;;;;;0.70;0.70;;;;;;;;;;5054824;28;20052;-87
2023/03/16 00:32:48;;;;;;;1.98;1.88;;;;;;;;;;5056806;28;20059;-87
2023/03/16 00:35:14;;;;;;;2.55;2.45;;;;;;;;;;5041011;28;20053;-88
2023/03/16 00:37:42;;;;;;;1.40;1.27;;;;;;;;;;5037202;28;20053;-88
2023/03/16 00:40:12;;;;;;;2.05;1.95;;;;;;;;;;5035902;28;20050;-87
2023/03/16 00:42:39;;;;;;;1.38;1.35;;;;;;;;;;5034901;28;20053;-87
2023/03/16 00:45:06;;;;;;;2.83;2.72;;;;;;;;;;5035260;28;20184;-88
2023/03/16 00:47:33;;;;;;;1.00;1.00;;;;;;;;;;5035071;28;20045;-88
2023/03/16 00:50:00;;;;;;;2.25;2.15;;;;;;;;;;5035146;28;20057;-88
2023/03/16 00:52:27;;;;;;;1.38;1.35;;;;;;;;;;5036257;28;20048;-88
2023/03/16 00:54:54;;;;;;;1.35;1.27;;;;;;;;;;5048993;28;20122;-89
2023/03/16 00:57:23;;;;;;;1.52;1.42;;;;;;;;;;5054868;28;20540;-89
2023/03/16 00:59:51;;;;;;;1.35;1.25;;;;;;;;;;5057128;28;20053;-88
2023/03/16 01:02:22;;;;;;;2.30;2.20;;;;;;;;;;5057551;28;20489;-89
2023/03/16 01:04:49;;;;;;;1.33;1.33;;;;;;;;;;5058500;28;20057;-89
2023/03/16 01:07:15;;;;;;;1.08;1.08;;;;;;;;;;5058355;28;20049;-87
2023/03/16 01:09:42;;;;;;;2.15;0.90;;;;;;;;;;5054745;28;20127;-89
2023/03/16 01:12:10;;;;;;;1.20;1.17;;;;;;;;;;5054951;28;20110;-88
2023/03/16 01:14:39;;;;;;;0.82;0.82;;;;;;;;;;5046855;28;20057;-89
2023/03/16 01:17:07;;;;;;;1.75;1.65;;;;;;;;;;5034946;28;20054;-88
2023/03/16 01:19:34;;;;;;;0.73;0.73;;;;;;;;;;5035307;28;20095;-88
2023/03/16 01:22:01;;;;;;;1.90;1.80;;;;;;;;;;5034319;28;20053;-88
2023/03/16 01:24:27;;;;;;;2.08;1.98;;;;;;;;;;5034375;28;20057;-89
2023/03/16 01:26:54;;;;;;;0.82;0.82;;;;;;;;;;5034328;28;20115;-88
2023/03/16 01:29:20;;;;;;;6.05;4.60;;;;;;;;;;5041307;28;20044;-88
2023/03/16 01:31:48;;;;;;;1.00;1.00;;;;;;;;;;5056700;28;20390;-89
2023/03/16 01:34:17;;;;;;;2.38;2.28;;;;;;;;;;5055074;28;20489;-89
2023/03/16 01:36:44;;;;;;;1.25;1.25;;;;;;;;;;5054055;28;20049;-89
2023/03/16 01:39:10;;;;;;;1.67;1.58;;;;;;;;;;5053832;28;20049;-89
2023/03/16 01:41:37;;;;;;;1.17;1.17;;;;;;;;;;5057089;28;20053;-88
2023/03/16 01:44:03;;;;;;;1.77;1.67;;;;;;;;;;5052162;28;20094;-88
2023/03/16 01:46:30;;;;;;;2.33;2.22;;;;;;;;;;5033800;28;20104;-89
2023/03/16 01:49:04;;;;;;;1.67;1.58;;;;;;;;;;5033732;28;20053;-88
2023/03/16 01:51:32;;;;;;;0.73;0.73;;;;;;;;;;5035378;28;20132;-88
2023/03/16 01:54:01;;;;;;;1.38;1.27;;;;;;;;;;5034166;28;20057;-89
2023/03/16 01:56:33;;;;;;;3.95;3.83;;;;;;;;;;5035610;28;20046;-89
2023/03/16 01:59:01;;;;;;;1.65;1.55;;;;;;;;;;5035636;28;20584;-88
2023/03/16 02:01:28;;;;;;;0.95;0.95;;;;;;;;;;5033975;28;20103;-88
2023/03/16 02:03:56;;;;;;;2.10;2.00;;;;;;;;;;5033273;28;20531;-88
2023/03/16 02:06:24;;;;;;;1.15;1.15;;;;;;;;;;5033799;28;20053;-88
2023/03/16 02:08:54;;;;;;;0.65;0.65;;;;;;;;;;5033341;28;20053;-88
2023/03/16 02:11:21;;;;;;;1.23;1.23;;;;;;;;;;5053136;28;20474;-88
2023/03/16 02:13:48;;;;;;;2.30;2.20;;;;;;;;;;5053238;28;20075;-88
2023/03/16 02:16:18;;;;;;;0.90;0.90;;;;;;;;;;5034511;28;20104;-88
2023/03/16 02:18:44;;;;;;;0.82;0.82;;;;;;;;;;5033167;28;20054;-88
2023/03/16 02:21:15;;;;;;;0.90;0.90;;;;;;;;;;5033453;28;20053;-88
2023/03/16 02:23:43;;;;;;;1.75;1.70;;;;;;;;;;5033703;28;20149;-88
2023/03/16 02:26:13;;;;;;;1.10;1.10;;;;;;;;;;5033141;28;20136;-89
2023/03/16 02:28:46;;;;;;;1.02;1.02;;;;;;;;;;5033564;28;20045;-88
2023/03/16 02:31:15;;;;;;;1.30;1.27;;;;;;;;;;5034515;28;20053;-88
2023/03/16 02:33:42;;;;;;;1.17;1.08;;;;;;;;;;5035309;28;20053;-88
2023/03/16 02:36:09;;;;;;;2.22;2.13;;;;;;;;;;5053168;28;20063;-88
2023/03/16 02:38:35;;;;;;;0.73;0.73;;;;;;;;;;5054256;28;20053;-89
2023/03/16 02:41:10;;;;;;;2.85;2.75;;;;;;;;;;5052987;28;20091;-88
2023/03/16 02:43:37;;;;;;;1.73;1.63;;;;;;;;;;5053875;28;20049;-87
2023/03/16 02:46:04;;;;;;;1.45;1.35;;;;;;;;;;5037855;28;20497;-88
2023/03/16 02:48:34;;;;;;;1.58;1.48;;;;;;;;;;5033791;28;20045;-88
2023/03/16 02:51:01;;;;;;;3.33;3.22;;;;;;;;;;5048183;28;20462;-88
2023/03/16 02:53:27;;;;;;;0.52;0.52;;;;;;;;;;5053997;28;20102;-88
2023/03/16 02:55:54;;;;;;;1.55;1.45;;;;;;;;;;5052962;28;20045;-88
2023/03/16 02:58:20;;;;;;;2.13;2.03;;;;;;;;;;5053856;28;20060;-89
2023/03/16 03:00:47;;;;;;;0.60;0.60;;;;;;;;;;5055469;28;20099;-88
2023/03/16 03:03:14;;;;;;;1.27;1.27;;;;;;;;;;5058978;28;20049;-89
2023/03/16 03:05:42;;;;;;;1.27;1.27;;;;;;;;;;5055071;28;20084;-88
2023/03/16 03:08:08;;;;;;;1.75;1.65;;;;;;;;;;5055867;28;20488;-88
2023/03/16 03:10:35;;;;;;;2.58;2.47;;;;;;;;;;5052456;28;20095;-87
2023/03/16 03:13:01;;;;;;;1.02;1.02;;;;;;;;;;5053055;28;20052;-89
2023/03/16 03:15:27;;;;;;;0.75;0.75;;;;;;;;;;5052859;28;20049;-89
2023/03/16 03:17:54;;;;;;;1.75;1.65;;;;;;;;;;5052822;28;20052;-88
2023/03/16 03:20:20;;;;;;;1.85;1.73;;;;;;;;;;5052613;28;20045;-88
2023/03/16 03:22:51;;;;;;;1.67;1.58;;;;;;;;;;5052663;28;20041;-88
2023/03/16 03:25:18;;;;;;;1.20;1.17;;;;;;;;;;5046397;28;20053;-88
2023/03/16 03:27:46;;;;;;;1.55;1.52;;;;;;;;;;5036192;28;20041;-89
2023/03/16 03:30:14;;;;;;;2.25;2.15;;;;;;;;;;5036697;28;20104;-88
2023/03/16 03:32:41;;;;;;;1.55;1.45;;;;;;;;;;5036544;28;20453;-88
2023/03/16 03:35:11;;;;;;;1.67;1.58;;;;;;;;;;5036617;28;20059;-89
2023/03/16 03:37:37;;;;;;;1.20;1.20;;;;;;;;;;5037184;28;20049;-88
2023/03/16 03:40:06;;;;;;;1.15;1.13;;;;;;;;;;5036576;28;20096;-89
2023/03/16 03:42:33;;;;;;;0.82;0.82;;;;;;;;;;5037274;28;20049;-88
2023/03/16 03:44:59;;;;;;;1.17;1.17;;;;;;;;;;5039528;28;20045;-88
2023/03/16 03:47:26;;;;;;;1.10;1.08;;;;;;;;;;5056393;28;20110;-88
2023/03/16 03:49:52;;;;;;;1.83;1.73;;;;;;;;;;5056387;28;20098;-89
2023/03/16 03:52:19;;;;;;;1.20;1.20;;;;;;;;;;5056997;28;20399;-89
2023/03/16 03:54:46;;;;;;;1.40;1.30;;;;;;;;;;5055997;28;20080;-88
2023/03/16 03:57:14;;;;;;;1.92;1.83;;;;;;;;;;5056051;28;20098;-88
2023/03/16 03:59:42;;;;;;;1.48;1.42;;;;;;;;;;5057354;28;20489;-89
2023/03/16 04:02:09;;;;;;;1.40;1.30;;;;;;;;;;5036259;28;20084;-88
2023/03/16 04:04:35;;;;;;;0.82;0.82;;;;;;;;;;5039205;28;20056;-89
2023/03/16 04:07:02;;;;;;;1.33;1.25;;;;;;;;;;5054408;28;20056;-88
2023/03/16 04:09:32;;;;;;;0.80;0.80;;;;;;;;;;5055690;28;20407;-88
2023/03/16 04:11:59;;;;;;;1.00;1.00;;;;;;;;;;5037332;28;20056;-88
2023/03/16 04:14:27;;;;;;;1.27;1.27;;;;;;;;;;5035343;28;20665;-88
2023/03/16 04:16:53;;;;;;;0.63;0.47;;;;;;;;;;5035960;28;20045;-88
2023/03/16 04:19:20;;;;;;;1.25;1.23;;;;;;;;;;5036159;28;20046;-89
2023/03/16 04:22:06;;;;;;;2.25;2.15;;;;;;;;;;5035922;28;20057;-88
2023/03/16 04:24:33;;;;;;;1.52;1.50;;;;;;;;;;5036107;28;20493;-89
2023/03/16 04:26:59;;;;;;;1.83;1.73;;;;;;;;;;5035826;28;20073;-88
2023/03/16 04:29:27;;;;;;;1.52;1.45;;;;;;;;;;5035828;28;20103;-89
2023/03/16 04:31:54;;;;;;;1.60;1.50;;;;;;;;;;5036729;28;20099;-89
2023/03/16 04:34:23;;;;;;;2.03;1.92;;;;;;;;;;5037357;28;20046;-89
2023/03/16 04:36:50;;;;;;;0.70;0.70;;;;;;;;;;5037316;28;20060;-88
2023/03/16 04:39:17;;;;;;;1.92;1.83;;;;;;;;;;5034838;28;20046;-88
2023/03/16 04:41:44;;;;;;;4.97;1.00;;;;;;;;;;5051099;28;20095;-89
2023/03/16 04:44:10;;;;;;;0.88;0.88;;;;;;;;;;5057349;28;20057;-88
2023/03/16 04:46:38;;;;;;;1.27;1.25;;;;;;;;;;5056937;28;20106;-90
2023/03/16 04:49:05;;;;;;;0.73;0.73;;;;;;;;;;5057740;28;20044;-88
2023/03/16 04:51:34;;;;;;;0.80;0.80;;;;;;;;;;5044365;28;20141;-89
2023/03/16 04:54:01;;;;;;;0.63;0.63;;;;;;;;;;5044145;28;20049;-88
2023/03/16 04:56:27;;;;;;;0.93;0.93;;;;;;;;;;5047453;28;20475;-89
2023/03/16 04:58:55;;;;;;;1.17;1.15;;;;;;;;;;5056452;28;20065;-89
2023/03/16 05:01:22;;;;;;;1.50;1.48;;;;;;;;;;5055842;28;20122;-88
2023/03/16 05:03:51;;;;;;;0.75;0.75;;;;;;;;;;5057308;28;20045;-89
2023/03/16 05:06:18;;;;;;;2.38;2.28;;;;;;;;;;5055791;28;20048;-88
2023/03/16 05:08:44;;;;;;;1.77;1.67;;;;;;;;;;5055539;28;20044;-89
2023/03/16 05:11:11;;;;;;;1.55;1.45;;;;;;;;;;5048557;28;20049;-89
2023/03/16 05:13:37;;;;;;;1.27;1.25;;;;;;;;;;5036020;28;20084;-88
2023/03/16 05:16:04;;;;;;;1.50;1.48;;;;;;;;;;5035776;28;20049;-89
2023/03/16 05:18:32;;;;;;;1.50;1.48;;;;;;;;;;5037097;28;20107;-89
2023/03/16 05:20:59;;;;;;;0.88;0.80;;;;;;;;;;5035857;28;20053;-89
2023/03/16 05:23:26;;;;;;;0.50;0.50;;;;;;;;;;5035886;28;20045;-88
2023/03/16 05:25:52;;;;;;;0.90;0.90;;;;;;;;;;5035465;28;20127;-89
2023/03/16 05:28:19;;;;;;;0.75;0.75;;;;;;;;;;5036503;28;20046;-89
2023/03/16 05:30:45;;;;;;;2.13;2.03;;;;;;;;;;5039927;28;20044;-89
2023/03/16 05:33:12;;;;;;;0.90;0.90;;;;;;;;;;5057852;28;20256;-89
2023/03/16 05:35:38;;;;;;;1.45;1.05;;;;;;;;;;5055181;28;20118;-88
2023/03/16 05:38:07;;;;;;;2.17;2.08;;;;;;;;;;5055658;28;20048;-88
2023/03/16 05:40:34;;;;;;;1.70;1.67;;;;;;;;;;5055730;28;20063;-88
2023/03/16 05:43:00;;;;;;;1.17;1.17;;;;;;;;;;5058533;28;20102;-89
2023/03/16 05:45:27;;;;;;;0.98;0.98;;;;;;;;;;5057010;28;20098;-88
2023/03/16 05:47:54;;;;;;;0.93;0.93;;;;;;;;;;5036549;28;20131;-89
2023/03/16 05:50:20;;;;;;;1.17;1.17;;;;;;;;;;5033888;28;20136;-89
2023/03/16 05:52:47;;;;;;;0.82;0.82;;;;;;;;;;5033644;28;20049;-89
2023/03/16 05:55:16;;;;;;;0.55;0.55;;;;;;;;;;5034303;28;20061;-89
2023/03/16 05:57:43;;;;;;;3.03;1.88;;;;;;;;;;5045924;28;20115;-89
2023/03/16 06:00:12;;;;;;;1.40;1.33;;;;;;;;;;5039039;28;20085;-89
2023/03/16 06:02:38;;;;;;;0.93;0.93;;;;;;;;;;5044367;28;20041;-89
2023/03/16 06:05:06;;;;;;;1.67;1.05;;;;;;;;;;5054984;28;20110;-89
2023/03/16 06:07:32;;;;;;;2.75;2.65;;;;;;;;;;5049522;28;20053;-89
2023/03/16 06:09:59;;;;;;;0.95;0.95;;;;;;;;;;5056867;28;20049;-88
2023/03/16 06:12:27;;;;;;;0.77;0.77;;;;;;;;;;5054643;28;20102;-89
2023/03/16 06:14:53;;;;;;;1.60;1.50;;;;;;;;;;5053246;28;20055;-89
2023/03/16 06:17:20;;;;;;;1.85;1.75;;;;;;;;;;5054890;28;20044;-89
2023/03/16 06:19:46;;;;;;;2.45;2.35;;;;;;;;;;5053274;28;20497;-89
2023/03/16 06:22:13;;;;;;;1.60;1.50;;;;;;;;;;5053918;28;20053;-88
2023/03/16 06:24:40;;;;;;;1.25;1.00;;;;;;;;;;5052850;28;20095;-89
2023/03/16 06:27:06;;;;;;;0.88;0.88;;;;;;;;;;5052463;28;20107;-89
2023/03/16 06:29:34;;;;;;;1.48;1.38;;;;;;;;;;5053529;28;20099;-89
2023/03/16 06:32:01;;;;;;;0.85;0.85;;;;;;;;;;5043760;28;20075;-89
2023/03/16 06:34:27;;;;;;;2.40;2.30;;;;;;;;;;5033913;28;20057;-89
2023/03/16 06:36:54;;;;;;;0.90;0.88;;;;;;;;;;5033514;28;20045;-88
2023/03/16 06:39:20;;;;;;;1.15;1.08;;;;;;;;;;5033246;28;20049;-88
2023/03/16 06:41:47;;;;;;;2.58;2.47;;;;;;;;;;5038866;28;20041;-89
2023/03/16 06:44:13;;;;;;;4.72;4.53;;;;;;;;;;5052149;28;20462;-89
2023/03/16 06:46:41;;;;;;;1.38;1.20;;;;;;;;;;5052515;28;20049;-89
2023/03/16 06:49:08;;;;;;;1.80;1.70;;;;;;;;;;5049783;28;20054;-89
2023/03/16 06:51:36;;;;;;;1.95;1.85;;;;;;;;;;5046216;28;20053;-89
2023/03/16 06:54:03;;;;;;;0.73;0.73;;;;;;;;;;5044924;28;20080;-89
2023/03/16 06:56:31;;;;;;;2.70;1.65;;;;;;;;;;5037924;28;20045;-89
2023/03/16 06:58:58;;;;;;;0.75;0.70;;;;;;;;;;5032799;28;20057;-88
2023/03/16 07:01:24;;;;;;;1.77;1.67;;;;;;;;;;5036258;28;20103;-89
2023/03/16 07:03:53;;;;;;;1.92;1.83;;;;;;;;;;5053882;28;20048;-89
2023/03/16 07:06:19;;;;;;;1.77;1.67;;;;;;;;;;5053037;28;20485;-89
2023/03/16 07:08:46;;;;;;;1.80;1.70;;;;;;;;;;5052989;28;20048;-88
2023/03/16 07:11:13;;;;;;;2.40;2.20;;;;;;;;;;5056596;28;20049;-88
2023/03/16 07:13:40;;;;;;;1.42;1.33;;;;;;;;;;5058250;28;20055;-89
2023/03/16 07:16:07;;;;;;;1.33;1.25;;;;;;;;;;5056183;28;20052;-88
2023/03/16 07:18:36;;;;;;;1.33;1.23;;;;;;;;;;5059193;28;20061;-89
2023/03/16 07:21:04;;;;;;;0.90;0.90;;;;;;;;;;5060502;28;20080;-89
2023/03/16 07:23:31;;;;;;;0.98;0.95;;;;;;;;;;5056090;28;20049;-89
2023/03/16 07:25:57;;;;;;;1.40;1.30;;;;;;;;;;5052464;28;20543;-89
2023/03/16 07:28:24;;;;;;;0.95;0.93;;;;;;;;;;5033197;28;20049;-89
2023/03/16 07:30:50;;;;;;;2.92;2.83;;;;;;;;;;5033624;28;20050;-89
2023/03/16 07:33:17;;;;;;;2.53;1.40;;;;;;;;;;5033495;28;20053;-89
2023/03/16 07:35:43;;;;;;;2.35;2.25;;;;;;;;;;5045989;28;20057;-89
2023/03/16 07:38:11;;;;;;;1.17;1.17;;;;;;;;;;5057788;28;20067;-90
2023/03/16 07:40:39;;;;;;;0.77;0.77;;;;;;;;;;5057915;28;20060;-91
2023/03/16 07:43:06;;;;;;;1.75;1.65;;;;;;;;;;5042758;28;20046;-91
2023/03/16 07:45:32;;;;;;;1.73;1.63;;;;;;;;;;5039045;28;20049;-90
2023/03/16 07:47:59;;;;;;;2.45;1.90;;;;;;;;;;5039645;28;20107;-91
2023/03/16 07:50:25;;;;;;;2.28;1.27;;;;;;;;;;5038607;28;20041;-91
2023/03/16 07:52:53;;;;;;;2.22;2.13;;;;;;;;;;5038784;28;20095;-91
2023/03/16 07:55:21;;;;;;;3.17;1.95;;;;;;;;;;5039013;28;20053;-91
2023/03/16 07:57:47;;;;;;;2.83;2.55;;;;;;;;;;5049921;28;20053;-91
2023/03/16 08:00:14;;;;;;;2.83;2.63;;;;;;;;;;5058591;28;20075;-90
2023/03/16 08:02:41;;;;;;;2.22;2.10;;;;;;;;;;5057380;28;20041;-92
2023/03/16 08:05:09;;;;;;;0.73;0.73;;;;;;;;;;5057577;28;20194;-92
2023/03/16 08:07:35;;;;;;;1.17;1.02;;;;;;;;;;5054312;28;20053;-92
2023/03/16 08:10:02;;;;;;;1.48;1.30;;;;;;;;;;5056826;28;20045;-91
2023/03/16 08:12:30;;;;;;;2.90;2.80;;;;;;;;;;5046457;28;20049;-90
2023/03/16 08:14:57;;;;;;;1.10;1.08;;;;;;;;;;5039992;28;20096;-92
2023/03/16 08:17:23;;;;;;;1.92;1.83;;;;;;;;;;5040592;28;20631;-90
2023/03/16 08:19:50;;;;;;;1.42;1.38;;;;;;;;;;5040049;28;20092;-91
2023/03/16 08:22:16;;;;;;;2.50;2.08;;;;;;;;;;5039592;28;20409;-91
2023/03/16 08:24:43;;;;;;;1.20;1.20;;;;;;;;;;5040156;28;20049;-91
2023/03/16 08:27:09;;;;;;;0.98;0.98;;;;;;;;;;5045229;28;20139;-91
2023/03/16 08:29:37;;;;;;;1.75;1.70;;;;;;;;;;5058773;28;20505;-92
2023/03/16 08:32:04;;;;;;;1.75;1.70;;;;;;;;;;5056523;28;20061;-91
2023/03/16 08:34:30;;;;;;;1.80;1.70;;;;;;;;;;5041766;28;20107;-90
2023/03/16 08:36:57;;;;;;;1.83;1.73;;;;;;;;;;5044255;28;20044;-90
2023/03/16 08:39:24;;;;;;;1.48;1.45;;;;;;;;;;5059475;28;20060;-90
2023/03/16 08:41:52;;;;;;;1.63;1.52;;;;;;;;;;5055694;28;20045;-91
2023/03/16 08:44:22;;;;;;;2.83;2.63;;;;;;;;;;5059456;28;20052;-90
2023/03/16 08:46:51;;;;;;;3.03;2.72;;;;;;;;;;5058101;28;20052;-93
2023/03/16 08:49:19;;;;;;;3.03;2.83;;;;;;;;;;5059017;28;20072;-90
2023/03/16 08:51:46;;;;;;;1.65;1.55;;;;;;;;;;5056368;28;20056;-91
2023/03/16 08:54:12;;;;;;;1.40;1.30;;;;;;;;;;5037077;28;20056;-90
2023/03/16 08:56:39;;;;;;;2.15;2.05;;;;;;;;;;5037272;28;20045;-91
2023/03/16 08:59:05;;;;;;;1.42;1.33;;;;;;;;;;5038068;28;20111;-92
2023/03/16 09:01:32;;;;;;;6.22;5.82;;;;;;;;;;5037652;28;20379;-92
2023/03/16 09:04:01;;;;;;;1.65;1.60;;;;;;;;;;5039295;28;20057;-92
2023/03/16 09:06:27;;;;;;;2.47;2.38;;;;;;;;;;5043467;28;20056;-91
2023/03/16 09:08:54;;;;;;;2.80;2.70;;;;;;;;;;5062774;28;20056;-91
2023/03/16 09:11:22;;;;;;;2.28;2.17;;;;;;;;;;5077580;28;20053;-91
2023/03/16 09:13:48;;;;;;;2.72;2.53;;;;;;;;;;5071661;28;20088;-91
2023/03/16 09:16:15;;;;;;;2.67;2.47;;;;;;;;;;5058358;28;20052;-91
2023/03/16 09:18:42;;;;;;;1.50;1.40;;;;;;;;;;5056586;28;20052;-90
2023/03/16 09:21:12;;;;;;;1.25;1.15;;;;;;;;;;5058725;28;20044;-92
2023/03/16 09:23:40;;;;;;;2.75;2.55;;;;;;;;;;5043112;28;20045;-92
2023/03/16 09:26:07;;;;;;;3.13;3.00;;;;;;;;;;5036588;28;20100;-91
2023/03/16 09:28:35;;;;;;;2.17;2.08;;;;;;;;;;5037556;28;20053;-92
2023/03/16 09:31:01;;;;;;;2.67;2.47;;;;;;;;;;5049688;28;20079;-91
2023/03/16 09:33:28;;;;;;;1.38;1.27;;;;;;;;;;5063170;28;20404;-92
2023/03/16 09:35:56;;;;;;;1.58;1.48;;;;;;;;;;5057983;28;20099;-92
2023/03/16 09:38:25;;;;;;;4.15;3.95;;;;;;;;;;5051290;28;20489;-91
2023/03/16 09:40:57;;;;;;;1.52;1.42;;;;;;;;;;5059623;28;20044;-92
2023/03/16 09:43:34;;;;;;;0.93;0.93;;;;;;;;;;5057808;28;20136;-91
2023/03/16 09:46:05;;;;;;;2.42;1.75;;;;;;;;;;5056951;28;20045;-92
2023/03/16 09:48:34;;;;;;;1.75;1.65;;;;;;;;;;5056781;28;20493;-92
2023/03/16 09:51:02;;;;;;;2.33;1.85;;;;;;;;;;5056804;28;20048;-92
2023/03/16 09:53:31;;;;;;;1.77;1.67;;;;;;;;;;5044579;28;20501;-92
2023/03/16 09:56:00;;;;;;;2.53;2.40;;;;;;;;;;5038415;28;20123;-93
2023/03/16 09:58:29;;;;;;;1.58;1.48;;;;;;;;;;5037728;28;20460;-92
2023/03/16 10:01:02;;;;;;;1.45;1.35;;;;;;;;;;5037838;28;20087;-91
2023/03/16 10:03:37;;;;;;;2.85;2.63;;;;;;;;;;5048881;28;20111;-93
2023/03/16 10:06:05;;;;;;;2.80;2.60;;;;;;;;;;5057658;28;20080;-92
2023/03/16 10:08:37;;;;;;;1.98;1.88;;;;;;;;;;5060621;28;20091;-93
2023/03/16 10:11:15;;;;;;;4.70;4.50;;;;;;;;;;5057424;28;20465;-92
2023/03/16 10:13:44;;;;;;;2.10;2.00;;;;;;;;;;5059252;28;20049;-92
2023/03/16 10:16:13;;;;;;;1.25;1.23;;;;;;;;;;5057762;28;20076;-93
2023/03/16 10:18:41;;;;;;;1.55;1.45;;;;;;;;;;5046096;28;20046;-93
2023/03/16 10:21:12;;;;;;;2.42;2.33;;;;;;;;;;5037484;28;20053;-93
2023/03/16 10:23:40;;;;;;;2.47;2.35;;;;;;;;;;5049620;28;20056;-93
2023/03/16 10:26:11;;;;;;;3.35;3.25;;;;;;;;;;5058216;28;20128;-92
2023/03/16 10:28:38;;;;;;;1.73;1.63;;;;;;;;;;5057954;28;20878;-91
2023/03/16 10:31:05;;;;;;;5.47;5.15;;;;;;;;;;5058660;28;20472;-90
2023/03/16 10:33:32;;;;;;;3.45;3.25;;;;;;;;;;5058619;28;20508;-91
2023/03/16 10:36:02;;;;;;;3.05;2.95;;;;;;;;;;5057630;28;20048;-90
2023/03/16 10:38:31;;;;;;;3.63;3.40;;;;;;;;;;5051789;28;20053;-89
2023/03/16 10:41:00;;;;;;;2.05;1.95;;;;;;;;;;5041562;28;20779;-91
2023/03/16 10:43:26;;;;;;;1.52;1.42;;;;;;;;;;5041837;28;20045;-91
2023/03/16 10:45:58;;;;;;;2.10;2.00;;;;;;;;;;5040977;28;20113;-91
2023/03/16 10:48:27;;;;;;;2.00;1.90;;;;;;;;;;5047400;28;20573;-90
2023/03/16 10:50:55;;;;;;;1.30;1.30;;;;;;;;;;5062826;28;20049;-92
2023/03/16 10:53:24;;;;;;;2.13;2.03;;;;;;;;;;5062798;28;20048;-90
2023/03/16 10:55:51;;;;;;;2.47;1.80;;;;;;;;;;5062896;28;20432;-91
2023/03/16 10:58:26;;;;;;;2.58;2.38;;;;;;;;;;5056071;28;20062;-92
2023/03/16 11:00:53;;;;;;;1.40;1.33;;;;;;;;;;5043915;28;20080;-91
2023/03/16 11:03:23;;;;;;;1.70;1.67;;;;;;;;;;5052139;28;20076;-92
2023/03/16 11:05:56;;;;;;;2.08;1.98;;;;;;;;;;5064095;28;20052;-90
2023/03/16 11:08:26;;;;;;;1.35;1.25;;;;;;;;;;5055795;28;20045;-91
2023/03/16 11:10:56;;;;;;;2.00;1.83;;;;;;;;;;5040925;28;20045;-92
2023/03/16 11:13:23;;;;;;;3.40;3.30;;;;;;;;;;5044567;28;20060;-92
2023/03/16 11:15:55;;;;;;;1.80;1.70;;;;;;;;;;5057310;28;20072;-91
2023/03/16 11:18:30;;;;;;;3.35;3.17;;;;;;;;;;5058064;28;20044;-91
2023/03/16 11:20:58;;;;;;;3.22;3.10;;;;;;;;;;5059162;28;20504;-91
2023/03/16 11:23:29;;;;;;;3.05;2.92;;;;;;;;;;5060788;28;20049;-92
2023/03/16 11:25:59;;;;;;;4.07;3.88;;;;;;;;;;5059848;28;20137;-91
2023/03/16 11:28:32;;;;;;;2.33;2.22;;;;;;;;;;5057597;28;20045;-89
2023/03/16 11:31:04;;;;;;;3.72;3.53;;;;;;;;;;5040519;28;20099;-91
2023/03/16 11:33:33;;;;;;;4.72;4.53;;;;;;;;;;5042985;28;20060;-91
2023/03/16 11:36:06;;;;;;;5.75;5.45;;;;;;;;;;5060411;28;20462;-92
2023/03/16 11:38:35;;;;;;;2.05;1.95;;;;;;;;;;5059640;28;20053;-91
2023/03/16 11:41:04;;;;;;;2.55;2.45;;;;;;;;;;5060123;28;20094;-91
2023/03/16 11:43:46;;;;;;;3.35;3.25;;;;;;;;;;5059253;28;20041;-91
2023/03/16 11:46:15;;;;;;;2.00;1.88;;;;;;;;;;5057912;28;20088;-91
2023/03/16 11:48:53;;;;;;;1.55;1.45;;;;;;;;;;5060172;28;20071;-92
2023/03/16 11:51:29;;;;;;;1.30;1.25;;;;;;;;;;5060944;28;20052;-90
2023/03/16 11:54:01;;;;;;;1.83;1.73;;;;;;;;;;5053521;28;20049;-92
2023/03/16 11:56:33;;;;;;;1.85;1.75;;;;;;;;;;5042361;28;20551;-91
2023/03/16 11:59:32;;;;;;;1.95;1.85;;;;;;;;;;5050153;28;20056;-92
2023/03/16 12:02:07;;;;;;;1.50;1.40;;;;;;;;;;5019134;28;20050;-91
2023/03/16 12:04:45;;;;;;;1.08;1.02;;;;;;;;;;5005940;28;20054;-92
2023/03/16 12:07:20;;;;;;;2.20;2.10;;;;;;;;;;4999050;28;20061;-91
2023/03/16 12:09:58;;;;;;;2.60;2.50;;;;;;;;;;5012023;28;20573;-91
2023/03/16 12:12:37;;;;;;;2.28;2.17;;;;;;;;;;4998378;28;20058;-91
2023/03/16 12:15:13;;;;;;;1.60;1.50;;;;;;;;;;5015675;28;20108;-91
2023/03/16 12:17:41;;;;;;;1.65;1.55;;;;;;;;;;5017840;28;20054;-92
2023/03/16 12:20:13;;;;;;;1.55;1.45;;;;;;;;;;5019400;28;20050;-92
2023/03/16 12:22:43;;;;;;;1.67;1.58;;;;;;;;;;5019252;28;20437;-92
2023/03/16 12:25:14;;;;;;;1.15;1.13;;;;;;;;;;5017989;28;20053;-91
2023/03/16 12:27:41;;;;;;;3.03;2.83;;;;;;;;;;5010812;28;20127;-90
2023/03/16 12:30:19;;;;;;;2.10;2.00;;;;;;;;;;5015942;28;20046;-91
2023/03/16 12:32:54;;;;;;;0.90;0.90;;;;;;;;;;5019898;28;20045;-91
2023/03/16 12:35:33;;;;;;;1.98;1.88;;;;;;;;;;5058456;28;20052;-92
2023/03/16 12:38:16;;;;;;;1.92;1.83;;;;;;;;;;5060676;28;20106;-91
2023/03/16 12:40:45;;;;;;;1.48;1.38;;;;;;;;;;5060126;28;20120;-91
2023/03/16 12:43:24;;;;;;;1.80;1.70;;;;;;;;;;5059520;28;20108;-90
2023/03/16 12:45:54;;;;;;;1.42;1.38;;;;;;;;;;5047692;28;20045;-91
2023/03/16 12:48:26;;;;;;;0.80;0.80;;;;;;;;;;5057863;28;20091;-91
2023/03/16 12:50:53;;;;;;;1.90;1.80;;;;;;;;;;5058096;28;20037;-91
2023/03/16 12:53:27;;;;;;;1.08;1.05;;;;;;;;;;5058716;28;20456;-90
2023/03/16 12:55:55;;;;;;;2.67;1.23;;;;;;;;;;5057069;28;20081;-90
2023/03/16 12:58:23;;;;;;;2.90;2.13;;;;;;;;;;5043432;28;20063;-88
2023/03/16 13:00:55;;;;;;;2.13;1.70;;;;;;;;;;5065145;28;20048;-89
2023/03/16 13:03:25;;;;;;;2.42;2.22;;;;;;;;;;5068330;28;20136;-90
2023/03/16 13:05:52;;;;;;;1.88;1.83;;;;;;;;;;5067190;28;20048;-90
2023/03/16 13:08:20;;;;;;;4.07;3.88;;;;;;;;;;5063357;28;20389;-90
2023/03/16 13:10:59;;;;;;;1.70;1.60;;;;;;;;;;5060117;28;20131;-89
2023/03/16 13:13:27;;;;;;;3.67;3.47;;;;;;;;;;5064703;28;20458;-90
2023/03/16 13:16:03;;;;;;;1.75;1.65;;;;;;;;;;5065187;28;20127;-88
2023/03/16 13:18:35;;;;;;;1.33;1.27;;;;;;;;;;5065628;28;20076;-88
2023/03/16 13:21:13;;;;;;;2.33;2.13;;;;;;;;;;5068138;28;20041;-88
2023/03/16 13:23:51;;;;;;;1.55;1.48;;;;;;;;;;5060746;28;20075;-90
2023/03/16 13:26:18;;;;;;;1.25;1.15;;;;;;;;;;5069726;28;20419;-89
2023/03/16 13:28:50;;;;;;;2.28;2.08;;;;;;;;;;5069277;28;20048;-90
2023/03/16 13:31:21;;;;;;;2.42;2.22;;;;;;;;;;5055463;28;20049;-88
2023/03/16 13:33:51;;;;;;;2.20;2.03;;;;;;;;;;5066606;28;20107;-89
2023/03/16 13:36:18;;;;;;;1.45;1.42;;;;;;;;;;5072811;28;20484;-90
2023/03/16 13:38:54;;;;;;;1.65;1.55;;;;;;;;;;5055683;28;20497;-90
2023/03/16 13:41:22;;;;;;;1.80;1.70;;;;;;;;;;5060200;28;20113;-89
2023/03/16 13:43:48;;;;;;;1.40;1.30;;;;;;;;;;5066000;28;20719;-90
2023/03/16 13:46:15;;;;;;;1.77;1.67;;;;;;;;;;5059207;28;20114;-90
2023/03/16 13:48:42;;;;;;;1.40;1.30;;;;;;;;;;5053663;28;20051;-90
2023/03/16 13:51:14;;;;;;;3.55;3.35;;;;;;;;;;5050210;28;20060;-90
2023/03/16 13:53:41;;;;;;;2.67;2.58;;;;;;;;;;5049292;28;20603;-89
2023/03/16 13:56:12;;;;;;;1.58;1.55;;;;;;;;;;5051794;28;20083;-89
2023/03/16 13:58:38;;;;;;;3.03;2.92;;;;;;;;;;5053241;28;20106;-89
2023/03/16 14:01:11;;;;;;;0.52;0.52;;;;;;;;;;5062304;28;20079;-90
2023/03/16 14:03:40;;;;;;;1.30;1.20;;;;;;;;;;5067543;28;20813;-90
2023/03/16 14:06:09;;;;;;;2.15;2.05;;;;;;;;;;5051952;28;20052;-90
2023/03/16 14:08:37;;;;;;;3.08;2.88;;;;;;;;;;5065471;28;20818;-90
2023/03/16 14:11:05;;;;;;;2.20;2.10;;;;;;;;;;5063056;28;20048;-90
2023/03/16 14:13:34;;;;;;;3.08;2.95;;;;;;;;;;5063214;28;20055;-89
2023/03/16 14:16:02;;;;;;;5.55;5.30;;;;;;;;;;5059075;28;20460;-90
2023/03/16 14:18:32;;;;;;;4.63;4.40;;;;;;;;;;5061288;28;20056;-90
2023/03/16 14:20:59;;;;;;;1.88;1.77;;;;;;;;;;5053670;28;20053;-90
2023/03/16 14:23:27;;;;;;;2.40;2.20;;;;;;;;;;5056496;28;20055;-90
2023/03/16 14:25:55;;;;;;;2.88;2.78;;;;;;;;;;5064264;28;20114;-90
2023/03/16 14:28:26;;;;;;;2.38;2.28;;;;;;;;;;5066541;28;20036;-90
2023/03/16 14:30:55;;;;;;;2.33;2.22;;;;;;;;;;5057338;28;20037;-91
2023/03/16 14:33:29;;;;;;;3.25;3.03;;;;;;;;;;5066705;28;20498;-90
2023/03/16 14:35:57;;;;;;;2.38;2.20;;;;;;;;;;5062157;28;20073;-90
2023/03/16 14:38:30;;;;;;;5.07;4.78;;;;;;;;;;5065434;28;20394;-90
2023/03/16 14:41:01;;;;;;;1.67;1.58;;;;;;;;;;5052034;28;20060;-90
2023/03/16 14:43:29;;;;;;;3.42;3.22;;;;;;;;;;5066672;28;20067;-90
2023/03/16 14:45:57;;;;;;;1.98;1.88;;;;;;;;;;5063514;28;20131;-90
2023/03/16 14:48:23;;;;;;;2.17;1.98;;;;;;;;;;5067981;28;20048;-92
2023/03/16 14:50:53;;;;;;;6.47;6.07;;;;;;;;;;5060252;28;20390;-91